Terminal Aerodrome Forecast
Issued by NWS

Home | Current Version | Previous Version | Text Only | Print | Product List | Glossary On
Versions: 1 2 3 4 5 6 7 8 9 10 11 12 13 14 15 16
000
FTUS45 KVEF 230539
TAFBIH
TAF
KBIH 230539Z 2306/2406 35012KT P6SM VCSH SCT090 BKN150
     FM230900 35012KT P6SM FEW090 BKN200
     FM231600 36017G25KT P6SM FEW090 SCT200
     FM232200 35012KT P6SM BKN200
     FM240200 34010KT P6SM BKN200=

USA.gov is the U.S. government's official web portal to all federal, state and local government web resources and services.